createdAt,value
2022-11-14T00:01:25.554Z,9.80
2022-11-14T00:04:29.989Z,9.80
2022-11-14T00:07:33.308Z,9.80
2022-11-14T00:10:36.384Z,9.80
2022-11-14T00:13:39.325Z,9.80
2022-11-14T00:16:42.331Z,9.80
2022-11-14T00:19:46.624Z,9.80
2022-11-14T00:22:49.563Z,9.80
2022-11-14T00:25:52.535Z,9.80
2022-11-14T00:28:56.084Z,9.70
2022-11-14T00:31:59.053Z,9.60
2022-11-14T00:35:03.380Z,9.40
2022-11-14T00:38:06.345Z,9.40
2022-11-14T00:41:09.370Z,9.40
2022-11-14T00:44:12.420Z,9.30
2022-11-14T00:47:15.456Z,9.40
2022-11-14T00:50:20.213Z,9.30
2022-11-14T00:53:23.169Z,9.30
2022-11-14T00:56:26.176Z,9.20
2022-11-14T00:59:29.194Z,9.20
2022-11-14T01:02:32.173Z,9.20
2022-11-14T01:05:41.967Z,9.30
2022-11-14T01:08:45.702Z,9.20
2022-11-14T01:11:48.693Z,9.30
2022-11-14T01:14:51.718Z,9.20
2022-11-14T01:17:54.684Z,9.20
2022-11-14T01:20:59.882Z,9.20
2022-11-14T01:24:02.981Z,9.30
2022-11-14T01:27:06.048Z,9.20
2022-11-14T01:30:09.773Z,9.10
2022-11-14T01:33:12.895Z,9.00
2022-11-14T01:36:17.497Z,9.00
2022-11-14T01:39:20.447Z,9.10
2022-11-14T01:42:27.397Z,9.00
2022-11-14T01:45:51.872Z,8.90
2022-11-14T01:48:59.335Z,9.00
2022-11-14T01:52:06.983Z,9.10
2022-11-14T01:55:11.168Z,9.10
2022-11-14T01:58:15.293Z,9.10
2022-11-14T02:01:18.279Z,9.10
2022-11-14T02:04:24.712Z,9.00
2022-11-14T02:07:32.092Z,9.10
2022-11-14T02:10:35.153Z,9.10
2022-11-14T02:13:38.379Z,9.10
2022-11-14T02:16:51.744Z,9.00
2022-11-14T02:20:28.373Z,9.00
2022-11-14T02:23:33.340Z,9.10
2022-11-14T02:26:36.923Z,9.00
2022-11-14T02:29:39.937Z,9.00
2022-11-14T02:33:10.463Z,9.10
2022-11-14T02:36:07.913Z,9.00
2022-11-14T02:39:10.855Z,8.90
2022-11-14T02:42:13.831Z,9.00
2022-11-14T02:45:16.903Z,9.00
2022-11-14T02:48:20.316Z,9.00
2022-11-14T02:51:24.857Z,9.00
2022-11-14T02:54:27.873Z,9.00
2022-11-14T02:57:30.845Z,9.10
2022-11-14T03:00:33.846Z,9.10
2022-11-14T03:03:36.822Z,9.10
2022-11-14T03:06:41.166Z,9.00
2022-11-14T03:09:44.167Z,9.00
2022-11-14T03:12:47.288Z,9.00
2022-11-14T03:15:50.282Z,8.90
2022-11-14T03:18:53.304Z,9.00
2022-11-14T03:21:57.661Z,9.10
2022-11-14T03:25:00.596Z,9.10
2022-11-14T03:28:03.560Z,9.10
2022-11-14T03:31:07.722Z,9.10
2022-11-14T03:34:10.801Z,9.10
2022-11-14T03:37:15.180Z,9.10
2022-11-14T03:40:18.551Z,9.00
2022-11-14T03:43:22.487Z,9.00
2022-11-14T03:46:25.563Z,9.00
2022-11-14T03:49:28.505Z,9.00
2022-11-14T03:52:32.895Z,8.90
2022-11-14T03:55:35.911Z,8.90
2022-11-14T03:58:38.968Z,8.90
2022-11-14T04:01:41.932Z,8.80
2022-11-14T04:04:44.891Z,8.90
2022-11-14T04:07:49.175Z,8.90
2022-11-14T04:10:52.142Z,8.90
2022-11-14T04:13:55.106Z,8.90
2022-11-14T04:16:58.066Z,9.00
2022-11-14T04:20:01.007Z,8.90
2022-11-14T04:23:05.342Z,8.80
2022-11-14T04:26:08.303Z,8.90
2022-11-14T04:29:11.253Z,8.90
2022-11-14T04:32:14.209Z,8.90
2022-11-14T04:35:17.466Z,8.90
2022-11-14T04:38:21.933Z,8.90
2022-11-14T04:41:24.904Z,8.90
2022-11-14T04:44:27.859Z,8.80
2022-11-14T04:47:31.067Z,8.90
2022-11-14T04:50:34.024Z,8.90
2022-11-14T04:53:38.514Z,8.80
2022-11-14T04:56:41.521Z,8.80
2022-11-14T04:59:44.518Z,8.80
2022-11-14T05:02:47.469Z,8.80
2022-11-14T05:05:50.460Z,8.70
2022-11-14T05:08:54.762Z,8.80
2022-11-14T05:11:57.728Z,8.90
2022-11-14T05:15:00.760Z,8.90
2022-11-14T05:18:04.098Z,8.80
2022-11-14T05:21:07.449Z,8.80
2022-11-14T05:24:11.786Z,8.70
2022-11-14T05:27:14.722Z,8.70
2022-11-14T05:30:17.856Z,8.70
2022-11-14T05:33:20.828Z,8.60
2022-11-14T05:36:23.803Z,8.60
2022-11-14T05:39:28.091Z,8.60
2022-11-14T05:42:31.262Z,8.60
2022-11-14T05:45:34.218Z,8.70
2022-11-14T05:48:37.304Z,8.70
2022-11-14T05:51:40.272Z,8.80
2022-11-14T05:54:44.626Z,8.80
2022-11-14T05:57:47.662Z,8.80
2022-11-14T06:00:54.196Z,8.80
2022-11-14T06:03:57.634Z,8.80
2022-11-14T06:07:00.630Z,8.80
2022-11-14T06:10:05.351Z,8.70
2022-11-14T06:13:08.355Z,8.80
2022-11-14T06:16:13.042Z,8.80
2022-11-14T06:19:16.210Z,8.60
2022-11-14T06:22:19.138Z,8.70
2022-11-14T06:25:23.505Z,8.60
2022-11-14T06:28:26.594Z,8.70
2022-11-14T06:31:29.725Z,8.70
2022-11-14T06:34:32.745Z,8.80
2022-11-14T06:37:36.877Z,8.80
2022-11-14T06:40:41.224Z,8.80
2022-11-14T06:43:46.113Z,8.80
2022-11-14T06:46:49.032Z,8.60
2022-11-14T06:49:51.988Z,8.70
2022-11-14T06:52:55.102Z,8.60
2022-11-14T06:56:01.038Z,8.60
2022-11-14T06:59:03.999Z,8.60
2022-11-14T07:02:07.129Z,8.60
2022-11-14T07:05:10.284Z,8.60
2022-11-14T07:08:17.203Z,8.60
2022-11-14T07:11:27.666Z,8.50
2022-11-14T07:14:30.643Z,8.50
2022-11-14T07:17:35.686Z,8.50
2022-11-14T07:20:38.651Z,8.50
2022-11-14T07:23:42.488Z,8.50
2022-11-14T07:26:47.265Z,8.50
2022-11-14T07:29:50.223Z,8.50
2022-11-14T07:32:56.587Z,8.50
2022-11-14T07:35:59.753Z,8.60
2022-11-14T07:39:02.731Z,8.60
2022-11-14T07:42:07.043Z,8.60
2022-11-14T07:45:11.476Z,8.60
2022-11-14T07:48:14.583Z,8.70
2022-11-14T07:51:19.353Z,8.70
2022-11-14T07:54:22.384Z,8.70
2022-11-14T07:57:26.721Z,8.60
2022-11-14T08:00:30.077Z,8.70
2022-11-14T08:03:33.740Z,8.70
2022-11-14T08:06:36.766Z,8.70
2022-11-14T08:09:39.709Z,8.70
2022-11-14T08:12:44.008Z,8.80
2022-11-14T08:15:47.004Z,8.80
2022-11-14T08:18:49.989Z,8.80
2022-11-14T08:21:53.059Z,8.70
2022-11-14T08:24:56.016Z,8.70
2022-11-14T08:28:00.290Z,8.50
2022-11-14T08:31:04.383Z,8.60
2022-11-14T08:34:07.459Z,8.60
2022-11-14T08:37:10.638Z,8.50
2022-11-14T08:40:13.962Z,8.40
2022-11-14T08:43:18.245Z,8.40
2022-11-14T08:46:21.217Z,8.50
2022-11-14T08:49:24.175Z,8.50
2022-11-14T08:52:27.461Z,8.50
2022-11-14T08:55:30.423Z,8.60
2022-11-14T08:58:34.767Z,8.40
2022-11-14T09:01:37.755Z,8.50
2022-11-14T09:04:40.820Z,8.50
2022-11-14T09:07:43.911Z,8.50
2022-11-14T09:10:46.871Z,8.50
2022-11-14T09:13:51.196Z,8.50
2022-11-14T09:16:54.286Z,8.50
2022-11-14T09:19:57.357Z,8.60
2022-11-14T09:23:00.515Z,8.60
2022-11-14T09:26:06.229Z,8.50
2022-11-14T09:29:10.502Z,8.60
2022-11-14T09:32:13.616Z,8.60
2022-11-14T09:35:17.048Z,8.70
2022-11-14T09:38:19.964Z,8.60
2022-11-14T09:41:25.588Z,8.60
2022-11-14T09:44:58.409Z,8.60
2022-11-14T09:48:07.941Z,8.70
2022-11-14T09:51:15.004Z,8.70
2022-11-14T09:54:22.755Z,8.60
2022-11-14T09:57:26.970Z,8.70
2022-11-14T10:00:45.711Z,8.80
2022-11-14T10:03:54.177Z,8.80
2022-11-14T10:07:10.395Z,8.90
2022-11-14T10:10:26.297Z,8.90
2022-11-14T10:13:44.782Z,8.90
2022-11-14T10:16:59.305Z,9.00
2022-11-14T10:20:09.111Z,9.00
2022-11-14T10:23:29.759Z,9.00
2022-11-14T10:26:34.806Z,9.10
2022-11-14T10:30:07.180Z,9.10
2022-11-14T10:33:24.004Z,9.00
2022-11-14T10:36:45.878Z,9.00
2022-11-14T10:39:53.165Z,9.10
2022-11-14T10:43:02.231Z,9.20
2022-11-14T10:46:10.986Z,9.30
2022-11-14T10:49:20.231Z,9.20
2022-11-14T10:52:33.110Z,9.30
2022-11-14T10:56:03.160Z,9.40
2022-11-14T10:58:59.139Z,9.50
2022-11-14T11:02:02.159Z,9.60
2022-11-14T11:05:16.762Z,9.50
2022-11-14T11:08:43.811Z,9.60
2022-11-14T11:11:55.303Z,9.60
2022-11-14T11:15:16.015Z,9.80
2022-11-14T11:18:27.412Z,10.30
2022-11-14T11:21:48.671Z,10.70
2022-11-14T11:24:51.836Z,11.10
2022-11-14T11:28:14.220Z,11.60
2022-11-14T11:31:17.200Z,12.00
2022-11-14T11:34:25.536Z,12.30
2022-11-14T11:37:33.430Z,12.50
2022-11-14T11:40:36.421Z,13.70
2022-11-14T11:43:46.206Z,14.60
2022-11-14T11:46:56.030Z,15.20
2022-11-14T11:50:00.203Z,15.10
2022-11-14T11:53:13.875Z,15.40
2022-11-14T11:56:22.832Z,15.50
2022-11-14T11:59:34.409Z,15.30
2022-11-14T12:02:48.160Z,15.80
2022-11-14T12:06:04.514Z,15.70
2022-11-14T12:09:19.024Z,15.90
2022-11-14T12:12:35.465Z,15.90
2022-11-14T12:15:46.089Z,16.90
2022-11-14T12:19:08.312Z,17.00
2022-11-14T12:22:38.631Z,17.60
2022-11-14T12:25:58.322Z,17.80
2022-11-14T12:29:27.228Z,18.00
2022-11-14T12:32:33.553Z,17.70
2022-11-14T12:35:39.383Z,18.00
2022-11-14T12:38:46.170Z,17.50
2022-11-14T12:41:50.554Z,17.50
2022-11-14T12:44:53.559Z,17.30
2022-11-14T12:48:22.182Z,17.10
2022-11-14T12:51:55.435Z,16.10
2022-11-14T12:54:58.452Z,16.60
2022-11-14T12:58:08.446Z,16.70
2022-11-14T13:01:26.596Z,17.00
2022-11-14T13:04:39.662Z,16.90
2022-11-14T13:07:53.187Z,17.10
2022-11-14T13:10:56.237Z,17.40
2022-11-14T13:14:20.959Z,17.40
2022-11-14T13:17:46.107Z,16.40
2022-11-14T13:21:21.588Z,16.60
2022-11-14T13:24:24.571Z,15.70
2022-11-14T13:27:52.108Z,15.30
2022-11-14T13:31:20.519Z,15.70
2022-11-14T13:34:37.300Z,16.30
2022-11-14T13:38:21.862Z,16.30
2022-11-14T13:42:05.523Z,16.50
2022-11-14T13:45:49.906Z,15.40
2022-11-14T13:49:16.845Z,15.60
2022-11-14T13:52:20.527Z,15.40
2022-11-14T13:55:29.014Z,14.60
2022-11-14T13:58:50.594Z,14.70
2022-11-14T14:02:15.977Z,14.90
2022-11-14T14:05:35.653Z,14.30
2022-11-14T14:08:55.639Z,14.00
2022-11-14T14:12:12.549Z,13.40
2022-11-14T14:15:23.230Z,12.90
2022-11-14T14:18:36.486Z,12.80
2022-11-14T14:21:49.087Z,12.70
2022-11-14T14:25:00.533Z,12.70
2022-11-14T14:28:12.606Z,12.60
2022-11-14T14:31:19.844Z,12.40
2022-11-14T14:34:25.176Z,12.10
2022-11-14T14:37:32.345Z,12.10
2022-11-14T14:40:38.275Z,12.00
2022-11-14T14:43:43.740Z,12.00
2022-11-14T14:46:46.754Z,11.80
2022-11-14T14:49:49.788Z,11.70
2022-11-14T14:53:04.285Z,11.50
2022-11-14T14:56:17.822Z,11.40
2022-11-14T14:59:24.013Z,11.40
2022-11-14T15:02:27.375Z,11.30
2022-11-14T15:05:32.071Z,11.20
2022-11-14T15:08:40.142Z,11.10
2022-11-14T15:11:45.840Z,11.00
2022-11-14T15:14:49.959Z,11.00
2022-11-14T15:17:54.915Z,10.90
2022-11-14T15:21:14.666Z,10.80
2022-11-14T15:24:21.802Z,10.70
2022-11-14T15:27:24.801Z,10.70
2022-11-14T15:30:31.759Z,10.70
2022-11-14T15:33:36.456Z,10.80
2022-11-14T15:37:17.866Z,10.70
2022-11-14T15:40:23.267Z,10.60
2022-11-14T15:43:48.054Z,10.60
2022-11-14T15:46:51.739Z,10.60
2022-11-14T15:50:03.320Z,10.40
2022-11-14T15:53:08.406Z,10.40
2022-11-14T15:56:14.577Z,10.40
2022-11-14T15:59:19.126Z,10.30
2022-11-14T16:02:24.708Z,10.30
2022-11-14T16:05:29.814Z,10.30
2022-11-14T16:08:32.927Z,10.20
2022-11-14T16:11:37.404Z,10.00
2022-11-14T16:14:40.541Z,10.00
2022-11-14T16:17:45.175Z,10.00
2022-11-14T16:20:48.366Z,10.00
2022-11-14T16:23:51.348Z,10.00
2022-11-14T16:26:55.718Z,10.00
2022-11-14T16:29:58.646Z,9.90
2022-11-14T16:33:01.632Z,9.90
2022-11-14T16:36:05.125Z,9.80
2022-11-14T16:39:11.270Z,9.80
2022-11-14T16:42:15.640Z,9.70
2022-11-14T16:45:20.126Z,9.70
2022-11-14T16:48:23.238Z,9.70
2022-11-14T16:51:47.914Z,9.70
2022-11-14T16:54:49.114Z,9.60
2022-11-14T16:57:53.457Z,9.60
2022-11-14T17:00:56.417Z,9.60
2022-11-14T17:03:59.954Z,9.60
2022-11-14T17:07:02.963Z,9.60
2022-11-14T17:10:06.794Z,9.50
2022-11-14T17:13:11.981Z,9.50
2022-11-14T17:16:14.953Z,9.50
2022-11-14T17:19:17.921Z,9.50
2022-11-14T17:22:20.931Z,9.50
2022-11-14T17:25:24.534Z,9.50
2022-11-14T17:28:29.241Z,9.60
2022-11-14T17:31:37.595Z,9.50
2022-11-14T17:34:41.814Z,9.40
2022-11-14T17:37:44.823Z,9.50
2022-11-14T17:40:47.797Z,9.50
2022-11-14T17:43:56.591Z,9.50
2022-11-14T17:46:59.578Z,9.60
2022-11-14T17:50:02.650Z,9.60
2022-11-14T17:53:05.594Z,9.60
2022-11-14T17:56:10.198Z,9.50
2022-11-14T17:59:14.512Z,9.50
2022-11-14T18:02:19.273Z,9.50
2022-11-14T18:05:22.272Z,9.50
2022-11-14T18:08:25.822Z,9.50
2022-11-14T18:11:28.933Z,9.40
2022-11-14T18:14:33.232Z,9.40
2022-11-14T18:17:36.253Z,9.40
2022-11-14T18:20:39.386Z,9.50
2022-11-14T18:23:42.743Z,9.40
2022-11-14T18:26:45.707Z,9.50
2022-11-14T18:29:49.973Z,9.50
2022-11-14T18:32:52.919Z,9.40
2022-11-14T18:35:57.326Z,9.30
2022-11-14T18:39:00.279Z,9.30
2022-11-14T18:42:03.247Z,9.20
2022-11-14T18:45:08.622Z,9.10
2022-11-14T18:48:11.612Z,9.10
2022-11-14T18:51:17.229Z,9.00
2022-11-14T18:54:20.196Z,9.00
2022-11-14T18:57:23.188Z,9.00
2022-11-14T19:00:27.517Z,8.90
2022-11-14T19:03:32.333Z,9.00
2022-11-14T19:06:37.652Z,9.00
2022-11-14T19:09:40.893Z,8.90
2022-11-14T19:12:44.021Z,8.90
2022-11-14T19:15:48.309Z,8.90
2022-11-14T19:18:51.290Z,8.90
2022-11-14T19:21:55.034Z,8.80
2022-11-14T19:24:58.992Z,8.80
2022-11-14T19:28:01.956Z,8.90
2022-11-14T19:31:07.533Z,8.90
2022-11-14T19:34:10.705Z,8.90
2022-11-14T19:37:13.763Z,8.90
2022-11-14T19:40:16.731Z,9.00
2022-11-14T19:43:19.846Z,9.00
2022-11-14T19:46:27.084Z,9.00
2022-11-14T19:49:30.994Z,9.00
2022-11-14T19:52:33.941Z,9.00
2022-11-14T19:55:36.916Z,9.00
2022-11-14T19:58:41.561Z,8.80
2022-11-14T20:01:45.885Z,8.80
2022-11-14T20:04:49.547Z,8.70
2022-11-14T20:07:52.495Z,8.60
2022-11-14T20:10:57.024Z,8.60
2022-11-14T20:14:02.147Z,8.60
2022-11-14T20:17:06.494Z,8.60
2022-11-14T20:20:10.133Z,8.70
2022-11-14T20:23:13.170Z,8.80
2022-11-14T20:26:17.850Z,8.90
2022-11-14T20:29:20.911Z,8.80
2022-11-14T20:32:25.256Z,8.80
2022-11-14T20:35:28.204Z,8.80
2022-11-14T20:38:31.484Z,8.70
2022-11-14T20:41:34.560Z,8.70
2022-11-14T20:44:37.485Z,8.80
2022-11-14T20:47:41.816Z,8.70
2022-11-14T20:50:44.764Z,8.70
2022-11-14T20:53:48.680Z,8.70
2022-11-14T20:56:51.766Z,8.70
2022-11-14T20:59:54.707Z,8.60
2022-11-14T21:02:59.026Z,8.70
2022-11-14T21:06:02.378Z,8.70
2022-11-14T21:09:05.355Z,8.60
2022-11-14T21:12:08.400Z,8.50
2022-11-14T21:15:11.584Z,8.60
2022-11-14T21:18:15.873Z,8.50
2022-11-14T21:21:20.708Z,8.50
2022-11-14T21:24:23.793Z,8.40
2022-11-14T21:27:26.739Z,8.40
2022-11-14T21:30:32.674Z,8.40
2022-11-14T21:33:36.941Z,8.30
2022-11-14T21:36:47.523Z,8.30
2022-11-14T21:39:50.686Z,8.30
2022-11-14T21:42:54.978Z,8.20
2022-11-14T21:45:59.999Z,8.20
2022-11-14T21:49:04.295Z,8.10
2022-11-14T21:52:07.246Z,8.20
2022-11-14T21:55:10.494Z,8.10
2022-11-14T21:58:13.978Z,8.00
2022-11-14T22:01:40.276Z,8.10
2022-11-14T22:04:43.633Z,8.00
2022-11-14T22:07:46.604Z,8.10
2022-11-14T22:10:49.550Z,8.00
2022-11-14T22:13:52.523Z,8.00
2022-11-14T22:16:55.593Z,7.90
2022-11-14T22:19:59.971Z,7.80
2022-11-14T22:23:02.964Z,7.80
2022-11-14T22:26:06.064Z,7.90
2022-11-14T22:29:09.500Z,7.90
2022-11-14T22:32:12.446Z,7.80
2022-11-14T22:35:16.994Z,7.80
2022-11-14T22:38:19.967Z,7.70
2022-11-14T22:41:29.137Z,7.70
2022-11-14T22:44:35.062Z,7.70
2022-11-14T22:47:38.037Z,7.70
2022-11-14T22:50:42.319Z,7.70
2022-11-14T22:53:48.535Z,7.70
2022-11-14T22:56:51.513Z,7.70
2022-11-14T22:59:54.939Z,7.60
2022-11-14T23:02:57.896Z,7.60
2022-11-14T23:06:07.559Z,7.70
2022-11-14T23:09:10.656Z,7.60
2022-11-14T23:12:13.630Z,7.70
2022-11-14T23:15:16.783Z,7.60
2022-11-14T23:18:19.821Z,7.60
2022-11-14T23:21:26.245Z,7.60
2022-11-14T23:24:29.225Z,7.60
2022-11-14T23:27:32.181Z,7.60
2022-11-14T23:30:36.092Z,7.50
2022-11-14T23:33:39.452Z,7.50
2022-11-14T23:36:43.821Z,7.40
2022-11-14T23:39:46.831Z,7.40
2022-11-14T23:42:49.829Z,7.40
2022-11-14T23:45:52.799Z,7.50
2022-11-14T23:48:56.041Z,7.40
2022-11-14T23:52:00.665Z,7.40
2022-11-14T23:55:03.649Z,7.30
2022-11-14T23:58:06.779Z,7.30
